Time;durP1;ratioP1;P1;durP2;ratioP2;P2;SDS_P1;SDS_P2;PMS_P1;PMS_P2;Temp;Humidity;BMP_temperature;BMP_pressure;BME280_temperature;BME280_humidity;BME280_pressure;Samples;Min_cycle;Max_cycle;Signal;HPM_P1;HPM_P2
2023/04/21 00:02:16;;;;;;;13.07;4.68;;;;;;;9.42;100.00;101525.66;6275285;28;20048;-78
2023/04/21 00:05:17;;;;;;;9.43;4.10;;;;;;;9.43;100.00;101521.28;6274681;28;20045;-78
2023/04/21 00:08:19;;;;;;;10.48;5.80;;;;;;;9.39;100.00;101520.53;6274754;28;20056;-78
2023/04/21 00:11:22;;;;;;;9.35;4.93;;;;;;;9.47;100.00;101517.63;6274797;28;20061;-78
2023/04/21 00:14:23;;;;;;;6.32;3.92;;;;;;;9.51;100.00;101512.22;6275052;28;20373;-78
2023/04/21 00:17:25;;;;;;;7.65;4.55;;;;;;;9.62;100.00;101510.03;6274657;28;20052;-78
2023/04/21 00:20:26;;;;;;;16.13;4.90;;;;;;;9.69;100.00;101507.22;6275125;28;20052;-78
2023/04/21 00:23:28;;;;;;;10.63;5.20;;;;;;;9.75;100.00;101505.19;6274766;28;20056;-78
2023/04/21 00:26:31;;;;;;;10.90;4.95;;;;;;;9.77;100.00;101507.78;6274649;28;20049;-78
2023/04/21 00:29:32;;;;;;;6.85;4.70;;;;;;;9.81;100.00;101502.34;6275090;28;20077;-78
2023/04/21 00:32:34;;;;;;;12.50;5.53;;;;;;;9.81;100.00;101499.72;6273980;28;20468;-78
2023/04/21 00:35:35;;;;;;;9.10;4.22;;;;;;;9.84;100.00;101504.00;6274911;28;20045;-78
2023/04/21 00:38:36;;;;;;;9.05;4.97;;;;;;;9.86;100.00;101512.69;6274449;28;20053;-78
2023/04/21 00:41:39;;;;;;;14.02;4.80;;;;;;;9.82;100.00;101493.56;6274586;28;20041;-78
2023/04/21 00:44:41;;;;;;;7.18;3.80;;;;;;;9.79;100.00;101500.69;6274532;28;20385;-78
2023/04/21 00:47:42;;;;;;;11.00;4.80;;;;;;;9.79;100.00;101495.44;6274456;28;20160;-78
2023/04/21 00:50:45;;;;;;;8.32;4.80;;;;;;;9.74;100.00;101490.38;6274678;28;20045;-79
2023/04/21 00:53:47;;;;;;;10.88;4.30;;;;;;;9.70;100.00;101494.03;6274523;28;20084;-78
2023/04/21 00:56:50;;;;;;;7.95;4.50;;;;;;;9.73;100.00;101490.44;6274459;28;20049;-78
2023/04/21 00:59:51;;;;;;;6.22;4.28;;;;;;;9.72;100.00;101479.09;6274500;28;20060;-78
2023/04/21 01:02:53;;;;;;;7.93;3.95;;;;;;;9.67;100.00;101483.63;6274200;28;20363;-78
2023/04/21 01:05:54;;;;;;;6.50;4.40;;;;;;;9.64;100.00;101475.88;6274030;28;20437;-78
2023/04/21 01:08:56;;;;;;;9.02;4.35;;;;;;;9.69;100.00;101484.44;6274166;28;20049;-78
2023/04/21 01:12:03;;;;;;;9.38;4.15;;;;;;;9.67;100.00;101475.75;6274160;28;20060;-78
2023/04/21 01:15:05;;;;;;;9.68;4.65;;;;;;;9.62;100.00;101480.31;6274271;28;20464;-78
2023/04/21 01:18:07;;;;;;;11.85;4.22;;;;;;;9.61;100.00;101468.97;6275089;28;20056;-78
2023/04/21 01:21:08;;;;;;;8.07;4.15;;;;;;;9.60;100.00;101469.91;6278746;28;20422;-78
2023/04/21 01:24:11;;;;;;;9.50;4.70;;;;;;;9.55;100.00;101471.84;6278524;28;20041;-78
2023/04/21 01:27:15;;;;;;;13.80;4.47;;;;;;;9.57;100.00;101474.41;6278306;28;20049;-78
2023/04/21 01:30:16;;;;;;;9.25;5.10;;;;;;;9.50;100.00;101467.69;6278210;28;20099;-79
2023/04/21 01:33:20;;;;;;;7.90;4.40;;;;;;;9.48;100.00;101475.59;6269857;28;20056;-78
2023/04/21 01:36:21;;;;;;;14.55;4.20;;;;;;;9.46;100.00;101469.56;6278439;28;20049;-78
2023/04/21 01:39:24;;;;;;;5.82;3.85;;;;;;;9.49;100.00;101471.19;6278038;28;20048;-78
2023/04/21 01:42:28;;;;;;;9.23;4.55;;;;;;;9.49;100.00;101463.31;6278173;28;20457;-79
2023/04/21 01:45:30;;;;;;;7.72;4.05;;;;;;;9.44;100.00;101465.25;6278124;28;20048;-79
2023/04/21 01:48:31;;;;;;;5.63;3.88;;;;;;;9.40;100.00;101457.53;6277994;28;20045;-79
2023/04/21 01:51:32;;;;;;;9.55;4.80;;;;;;;9.37;100.00;101449.75;6277727;28;20053;-79
2023/04/21 01:54:35;;;;;;;8.70;4.10;;;;;;;9.36;100.00;101453.31;6278019;28;20049;-79
2023/04/21 01:57:37;;;;;;;8.98;4.43;;;;;;;9.34;100.00;101443.78;6277552;28;20053;-79
2023/04/21 02:00:38;;;;;;;8.02;4.22;;;;;;;9.29;100.00;101446.56;6277972;28;20051;-79
2023/04/21 02:03:40;;;;;;;8.75;4.32;;;;;;;9.24;100.00;101442.41;6277407;28;20056;-79
2023/04/21 02:06:41;;;;;;;12.77;4.25;;;;;;;9.23;100.00;101443.31;6277308;28;20052;-79
2023/04/21 02:09:44;;;;;;;13.73;4.30;;;;;;;9.17;100.00;101440.91;6277388;28;20433;-79
2023/04/21 02:12:46;;;;;;;8.15;4.25;;;;;;;9.14;100.00;101437.50;6277207;28;20061;-79
2023/04/21 02:15:47;;;;;;;9.55;5.28;;;;;;;9.19;100.00;101449.59;6277390;28;20045;-79
2023/04/21 02:18:49;;;;;;;6.35;3.92;;;;;;;9.16;100.00;101442.69;6277051;28;20056;-79
2023/04/21 02:21:50;;;;;;;8.88;4.38;;;;;;;9.09;100.00;101439.44;6277167;28;20053;-78
2023/04/21 02:24:53;;;;;;;7.72;4.00;;;;;;;9.04;100.00;101441.38;6277195;28;20052;-79
2023/04/21 02:27:54;;;;;;;11.63;4.22;;;;;;;9.01;100.00;101438.84;6265010;28;20045;-79
2023/04/21 02:30:55;;;;;;;9.20;4.85;;;;;;;9.00;100.00;101433.66;6272842;28;20358;-79
2023/04/21 02:33:57;;;;;;;10.57;4.18;;;;;;;9.01;100.00;101432.75;6275063;28;20049;-79
2023/04/21 02:36:59;;;;;;;16.25;5.05;;;;;;;9.00;100.00;101434.53;6276718;28;20075;-79
2023/04/21 02:40:02;;;;;;;9.68;4.25;;;;;;;8.98;100.00;101445.97;6276697;28;20059;-79
2023/04/21 02:43:04;;;;;;;8.38;4.25;;;;;;;8.98;100.00;101440.72;6268572;28;20060;-79
2023/04/21 02:46:06;;;;;;;10.35;3.70;;;;;;;9.02;100.00;101442.31;6276669;28;20465;-79
2023/04/21 02:49:07;;;;;;;11.60;5.40;;;;;;;9.00;100.00;101449.41;6276560;28;20045;-79
2023/04/21 02:52:09;;;;;;;11.00;4.93;;;;;;;8.93;100.00;101453.13;6276384;28;20057;-78
2023/04/21 02:55:12;;;;;;;9.23;4.10;;;;;;;8.97;100.00;101446.88;6276762;28;20137;-79
2023/04/21 02:58:13;;;;;;;8.38;4.30;;;;;;;9.01;100.00;101449.34;6276168;28;20049;-79
2023/04/21 03:01:15;;;;;;;19.40;5.10;;;;;;;8.93;100.00;101455.75;6276244;28;20059;-79
2023/04/21 03:04:18;;;;;;;9.98;4.78;;;;;;;8.85;100.00;101451.63;6276196;28;20055;-79
2023/04/21 03:07:20;;;;;;;10.95;4.47;;;;;;;8.90;100.00;101448.84;6276081;28;20049;-79
2023/04/21 03:10:22;;;;;;;10.18;4.53;;;;;;;8.82;100.00;101457.00;6275998;28;20153;-79
2023/04/21 03:13:24;;;;;;;8.73;4.32;;;;;;;8.82;100.00;101450.91;6275773;28;20053;-79
2023/04/21 03:16:26;;;;;;;9.80;4.35;;;;;;;8.76;100.00;101451.94;6275747;28;20045;-79
2023/04/21 03:19:28;;;;;;;7.18;3.80;;;;;;;8.80;100.00;101456.16;6275658;28;20080;-79
2023/04/21 03:22:30;;;;;;;6.30;3.63;;;;;;;8.79;100.00;101456.22;6275688;28;20076;-79
2023/04/21 03:25:32;;;;;;;10.27;4.75;;;;;;;8.78;100.00;101454.53;6275618;28;20372;-79
2023/04/21 03:28:34;;;;;;;8.27;4.13;;;;;;;8.77;100.00;101458.91;6262375;28;20053;-79
2023/04/21 03:31:35;;;;;;;9.75;3.67;;;;;;;8.85;100.00;101453.38;6256983;28;20676;-79
2023/04/21 03:34:37;;;;;;;5.25;3.47;;;;;;;8.73;100.00;101457.31;6258406;28;20052;-79
2023/04/21 03:37:38;;;;;;;8.55;3.13;;;;;;;8.75;100.00;101455.47;6256506;28;20045;-79
2023/04/21 03:40:41;;;;;;;6.00;4.15;;;;;;;8.69;100.00;101452.22;6257392;28;20037;-79
2023/04/21 03:43:42;;;;;;;14.63;4.50;;;;;;;8.69;100.00;101455.69;6257794;28;20052;-79
2023/04/21 03:46:44;;;;;;;8.68;3.63;;;;;;;8.62;100.00;101455.03;6254988;28;20040;-79
2023/04/21 03:49:45;;;;;;;12.32;4.70;;;;;;;8.59;100.00;101455.16;6255451;28;20041;-79
2023/04/21 03:52:47;;;;;;;11.15;4.57;;;;;;;8.58;100.00;101461.31;6258895;28;20045;-79
2023/04/21 03:55:51;;;;;;;12.02;4.40;;;;;;;8.60;100.00;101458.63;6256975;28;20045;-79
2023/04/21 03:58:52;;;;;;;8.20;4.00;;;;;;;8.63;100.00;101458.53;6259802;28;20048;-79
2023/04/21 04:01:54;;;;;;;10.30;4.53;;;;;;;8.49;100.00;101456.34;6256620;28;20056;-79
2023/04/21 04:04:55;;;;;;;9.65;3.97;;;;;;;8.52;100.00;101456.25;6256687;28;20045;-79
2023/04/21 04:07:57;;;;;;;13.80;4.63;;;;;;;8.52;100.00;101458.88;6256428;28;20187;-79
2023/04/21 04:10:59;;;;;;;11.50;4.20;;;;;;;8.55;100.00;101458.78;6256392;28;20040;-78
2023/04/21 04:14:01;;;;;;;9.88;4.45;;;;;;;8.52;100.00;101463.25;6256546;28;20048;-78
2023/04/21 04:17:02;;;;;;;9.43;4.35;;;;;;;8.48;100.00;101459.03;6255866;28;20049;-78
2023/04/21 04:20:07;;;;;;;7.38;3.88;;;;;;;8.48;100.00;101459.88;6256433;28;20056;-79
2023/04/21 04:23:08;;;;;;;10.45;3.63;;;;;;;8.51;100.00;101458.94;6259764;28;20691;-79
2023/04/21 04:26:11;;;;;;;7.05;3.45;;;;;;;8.38;100.00;101458.47;6256651;28;20056;-79
2023/04/21 04:29:12;;;;;;;7.90;4.00;;;;;;;8.44;100.00;101458.25;6272996;28;20060;-79
2023/04/21 04:32:14;;;;;;;9.48;4.22;;;;;;;8.40;100.00;101461.88;6274427;28;20060;-79
2023/04/21 04:35:15;;;;;;;13.98;4.45;;;;;;;8.36;100.00;101455.03;6274462;28;20045;-79
2023/04/21 04:38:17;;;;;;;8.60;4.25;;;;;;;8.30;100.00;101456.06;6274281;28;20048;-79
2023/04/21 04:41:19;;;;;;;8.65;3.83;;;;;;;8.33;100.00;101453.34;6273440;28;20045;-79
2023/04/21 04:44:22;;;;;;;9.18;4.70;;;;;;;8.37;100.00;101448.91;6274190;28;20049;-79
2023/04/21 04:47:23;;;;;;;9.50;4.93;;;;;;;8.33;100.00;101450.75;6271226;28;20044;-79
2023/04/21 04:50:25;;;;;;;8.35;4.15;;;;;;;8.30;100.00;101452.59;6274147;28;20049;-79
2023/04/21 04:53:28;;;;;;;9.10;3.70;;;;;;;8.35;100.00;101458.53;6275345;28;20056;-79
2023/04/21 04:56:31;;;;;;;8.82;4.22;;;;;;;8.42;100.00;101460.09;6278980;28;20048;-79
2023/04/21 04:59:33;;;;;;;10.35;4.05;;;;;;;8.45;100.00;101461.75;6278593;28;20055;-79
2023/04/21 05:02:34;;;;;;;11.13;3.97;;;;;;;8.42;100.00;101459.25;6278897;28;20040;-80
2023/04/21 05:05:35;;;;;;;10.30;4.03;;;;;;;8.39;100.00;101466.28;6278593;28;20041;-79
2023/04/21 05:08:38;;;;;;;16.35;4.57;;;;;;;8.51;100.00;101477.28;6278298;28;20053;-79
2023/04/21 05:11:41;;;;;;;8.95;4.28;;;;;;;8.53;100.00;101475.44;6278290;28;20050;-80
2023/04/21 05:14:43;;;;;;;14.93;4.80;;;;;;;8.51;100.00;101478.13;6275523;28;20678;-79
2023/04/21 05:17:44;;;;;;;8.48;3.83;;;;;;;8.59;100.00;101483.13;6277962;28;20342;-80
2023/04/21 05:20:46;;;;;;;11.10;4.55;;;;;;;8.63;100.00;101482.13;6278364;28;20049;-80
2023/04/21 05:23:47;;;;;;;8.05;4.40;;;;;;;8.60;100.00;101488.31;6278707;28;20060;-80
2023/04/21 05:26:50;;;;;;;7.05;3.85;;;;;;;8.64;100.00;101478.59;6278256;28;20056;-80
2023/04/21 05:29:53;;;;;;;11.82;4.45;;;;;;;8.69;100.00;101481.03;6278576;28;20049;-79
2023/04/21 05:32:54;;;;;;;9.15;3.60;;;;;;;8.72;100.00;101475.69;6278089;28;20060;-79
2023/04/21 05:35:56;;;;;;;9.85;4.03;;;;;;;8.75;100.00;101480.81;6278095;28;20044;-79
2023/04/21 05:38:57;;;;;;;10.45;4.07;;;;;;;8.72;100.00;101478.31;6277937;28;20045;-79
2023/04/21 05:42:01;;;;;;;6.70;4.00;;;;;;;8.77;100.00;101479.88;6278069;28;20095;-80
2023/04/21 05:45:02;;;;;;;6.35;3.75;;;;;;;8.83;100.00;101478.81;6278050;28;20111;-79
2023/04/21 05:48:05;;;;;;;8.57;4.03;;;;;;;8.85;100.00;101471.72;6278040;28;20056;-80
2023/04/21 05:51:10;;;;;;;10.15;3.80;;;;;;;8.88;100.00;101475.13;6277761;28;20059;-80
2023/04/21 05:54:11;;;;;;;13.80;5.07;;;;;;;8.94;100.00;101471.41;6277701;28;20057;-79
2023/04/21 05:57:15;;;;;;;13.13;5.03;;;;;;;8.96;100.00;101474.84;6277752;28;20049;-79
2023/04/21 06:00:17;;;;;;;12.00;4.22;;;;;;;9.04;100.00;101474.59;6277643;28;20438;-79
2023/04/21 06:03:18;;;;;;;16.73;3.72;;;;;;;9.09;100.00;101468.28;6269101;28;20052;-80
2023/04/21 06:06:19;;;;;;;6.20;3.75;;;;;;;9.14;100.00;101473.34;6277641;28;20459;-80
2023/04/21 06:09:21;;;;;;;5.57;3.40;;;;;;;9.22;100.00;101476.56;6276564;28;20349;-80
2023/04/21 06:12:24;;;;;;;13.85;3.97;;;;;;;9.27;100.00;101474.63;6276693;28;20059;-79
2023/04/21 06:15:25;;;;;;;11.13;4.53;;;;;;;9.33;100.00;101465.69;6276898;28;20053;-79
2023/04/21 06:18:27;;;;;;;11.88;4.90;;;;;;;9.38;100.00;101472.47;6276977;28;20045;-80
2023/04/21 06:21:28;;;;;;;9.07;5.00;;;;;;;9.44;100.00;101454.78;6277306;28;20377;-79
2023/04/21 06:24:32;;;;;;;7.78;4.05;;;;;;;9.45;100.00;101464.34;6277372;28;20051;-79
2023/04/21 06:27:34;;;;;;;7.30;4.32;;;;;;;9.53;100.00;101462.31;6276629;28;20049;-79
2023/04/21 06:30:36;;;;;;;9.98;4.97;;;;;;;9.60;100.00;101458.53;6277094;28;20053;-80
2023/04/21 06:33:37;;;;;;;8.80;4.38;;;;;;;9.69;100.00;101454.72;6276511;28;20057;-79
2023/04/21 06:36:39;;;;;;;12.38;4.28;;;;;;;9.73;100.00;101451.06;6277040;28;20124;-79
2023/04/21 06:39:40;;;;;;;12.98;4.45;;;;;;;9.76;100.00;101446.53;6276519;28;20071;-79
2023/04/21 06:42:43;;;;;;;8.43;4.50;;;;;;;9.80;100.00;101442.03;6276963;28;20045;-80
2023/04/21 06:45:44;;;;;;;9.70;4.40;;;;;;;9.83;100.00;101436.66;6276530;28;20041;-80
2023/04/21 06:48:46;;;;;;;11.52;3.85;;;;;;;9.95;100.00;101443.19;6276455;28;20064;-80
2023/04/21 06:51:47;;;;;;;14.55;5.18;;;;;;;10.03;100.00;101446.38;6276859;28;20055;-79
2023/04/21 06:54:48;;;;;;;6.82;3.50;;;;;;;10.13;100.00;101448.59;6276717;28;20045;-80
2023/04/21 06:57:51;;;;;;;13.18;5.00;;;;;;;10.23;100.00;101450.84;6275954;28;20331;-80
2023/04/21 07:00:52;;;;;;;7.55;4.00;;;;;;;10.30;100.00;101437.41;6276409;28;20060;-80
2023/04/21 07:03:54;;;;;;;9.32;4.05;;;;;;;10.40;100.00;101433.50;6276192;28;20056;-80
2023/04/21 07:06:55;;;;;;;10.68;4.60;;;;;;;10.45;100.00;101437.72;6276042;28;20134;-79
2023/04/21 07:09:57;;;;;;;13.23;4.57;;;;;;;10.51;100.00;101434.81;6276256;28;20041;-79
2023/04/21 07:13:00;;;;;;;11.07;5.10;;;;;;;10.61;100.00;101436.13;6275986;28;20055;-79
2023/04/21 07:16:01;;;;;;;9.40;3.90;;;;;;;10.70;100.00;101429.63;6275404;28;20053;-80
2023/04/21 07:19:02;;;;;;;6.93;4.20;;;;;;;10.77;100.00;101438.97;6273836;28;20049;-79
2023/04/21 07:22:04;;;;;;;12.93;4.65;;;;;;;10.82;100.00;101434.38;6275751;28;20369;-79
2023/04/21 07:25:06;;;;;;;20.38;5.32;;;;;;;10.96;100.00;101439.03;6275577;28;20129;-79
2023/04/21 07:28:09;;;;;;;9.93;4.35;;;;;;;11.10;100.00;101436.63;6275518;28;20045;-79
2023/04/21 07:31:11;;;;;;;7.50;3.83;;;;;;;11.23;100.00;101434.31;6275900;28;20041;-79
2023/04/21 07:34:12;;;;;;;13.85;4.13;;;;;;;11.32;100.00;101432.13;6275513;28;20064;-79
2023/04/21 07:37:14;;;;;;;22.88;4.05;;;;;;;11.48;100.00;101426.16;6275305;28;20049;-79
2023/04/21 07:40:15;;;;;;;11.02;4.07;;;;;;;11.56;100.00;101427.50;6275432;28;20053;-79
2023/04/21 07:43:18;;;;;;;6.70;3.67;;;;;;;11.68;100.00;101426.94;6275355;28;20053;-80
2023/04/21 07:46:20;;;;;;;9.48;3.90;;;;;;;11.81;100.00;101418.44;6267340;28;20463;-82
2023/04/21 07:49:21;;;;;;;10.88;4.80;;;;;;;11.89;100.00;101424.22;6275273;28;20182;-80
2023/04/21 07:52:23;;;;;;;7.00;4.05;;;;;;;11.98;100.00;101431.69;6275064;28;20056;-80
2023/04/21 07:55:24;;;;;;;12.63;4.68;;;;;;;11.99;100.00;101414.09;6275280;28;20059;-78
2023/04/21 07:58:27;;;;;;;10.13;4.05;;;;;;;12.10;100.00;101420.56;6275148;28;20041;-80
2023/04/21 08:01:28;;;;;;;14.02;4.10;;;;;;;12.22;100.00;101415.59;6275165;28;20052;-80
2023/04/21 08:04:30;;;;;;;9.85;4.78;;;;;;;12.28;100.00;101413.53;6274999;28;20045;-78
2023/04/21 08:07:31;;;;;;;8.43;4.07;;;;;;;12.27;100.00;101421.53;6274490;28;20358;-78
2023/04/21 08:10:33;;;;;;;7.88;3.83;;;;;;;12.43;100.00;101419.81;6274921;28;20048;-78
2023/04/21 08:13:36;;;;;;;7.93;4.25;;;;;;;12.71;100.00;101413.97;6274647;28;20045;-79
2023/04/21 08:16:39;;;;;;;14.52;4.13;;;;;;;12.73;100.00;101421.84;6275150;28;20064;-80
2023/04/21 08:19:40;;;;;;;12.68;4.00;;;;;;;12.78;100.00;101409.25;6274917;28;20139;-78
2023/04/21 08:22:41;;;;;;;11.43;4.00;;;;;;;12.72;100.00;101406.91;6275062;28;20045;-78
2023/04/21 08:25:43;;;;;;;7.32;3.83;;;;;;;12.82;100.00;101403.75;6274578;28;20041;-78
2023/04/21 08:28:47;;;;;;;8.60;3.88;;;;;;;13.05;100.00;101399.91;6278810;28;20052;-78
2023/04/21 08:31:49;;;;;;;15.98;4.32;;;;;;;13.12;100.00;101389.84;6279568;28;20052;-78
2023/04/21 08:34:50;;;;;;;13.30;4.38;;;;;;;13.40;100.00;101381.34;6279625;28;20044;-77
2023/04/21 08:37:52;;;;;;;10.38;4.03;;;;;;;13.36;100.00;101391.22;6279329;28;20353;-76
2023/04/21 08:40:55;;;;;;;10.68;4.65;;;;;;;13.37;100.00;101390.28;6279476;28;20052;-76
2023/04/21 08:43:58;;;;;;;9.48;3.90;;;;;;;13.40;100.00;101392.75;6279566;28;20045;-77
2023/04/21 08:47:00;;;;;;;13.93;4.72;;;;;;;13.40;100.00;101398.03;6279060;28;20056;-77
2023/04/21 08:50:01;;;;;;;10.98;4.55;;;;;;;13.51;100.00;101386.03;6279361;28;20049;-77
2023/04/21 08:53:03;;;;;;;11.20;4.18;;;;;;;13.67;100.00;101390.38;6278944;28;20055;-78
2023/04/21 08:56:05;;;;;;;10.15;3.60;;;;;;;13.67;100.00;101386.84;6279291;28;20049;-78
2023/04/21 08:59:08;;;;;;;9.15;3.72;;;;;;;13.75;100.00;101386.44;6279034;28;20060;-79
2023/04/21 09:02:11;;;;;;;12.38;3.58;;;;;;;13.75;100.00;101382.00;6279205;28;20062;-79
2023/04/21 09:05:22;;;;;;;9.50;4.03;;;;;;;14.08;100.00;101386.28;6279209;28;20049;-80
2023/04/21 09:08:24;;;;;;;10.38;4.13;;;;;;;14.11;100.00;101386.13;6279124;28;20045;-78
2023/04/21 09:11:25;;;;;;;9.65;4.05;;;;;;;14.08;100.00;101386.28;6278959;28;20171;-79
2023/04/21 09:14:33;;;;;;;8.40;3.63;;;;;;;14.29;100.00;101397.44;6279062;28;20060;-79
2023/04/21 09:17:35;;;;;;;7.80;3.92;;;;;;;14.33;100.00;101383.94;6278553;28;20044;-82
2023/04/21 09:20:37;;;;;;;8.23;3.22;;;;;;;14.41;100.00;101386.13;6279015;28;21290;-81
2023/04/21 09:23:42;;;;;;;10.18;3.80;;;;;;;14.51;100.00;101383.81;6278854;28;20064;-82
2023/04/21 09:26:44;;;;;;;14.48;4.63;;;;;;;14.63;100.00;101383.09;6278534;28;20346;-82
2023/04/21 09:29:48;;;;;;;11.02;3.80;;;;;;;14.74;100.00;101374.50;6278650;28;20630;-83
2023/04/21 09:32:49;;;;;;;8.98;2.72;;;;;;;14.86;100.00;101376.41;6278739;28;20434;-80
2023/04/21 09:35:52;;;;;;;11.93;3.17;;;;;;;15.14;100.00;101370.25;6278201;28;20053;-81
2023/04/21 09:38:58;;;;;;;8.77;3.10;;;;;;;15.34;98.34;101353.94;6277439;28;20045;-82
2023/04/21 09:42:00;;;;;;;6.10;3.10;;;;;;;15.39;97.78;101365.09;6278388;28;20059;-81
2023/04/21 09:45:03;;;;;;;6.18;3.15;;;;;;;15.51;96.70;101357.34;6278292;28;20056;-82
2023/04/21 09:48:08;;;;;;;6.03;2.95;;;;;;;15.45;99.27;101351.47;6278181;28;20056;-82
2023/04/21 09:51:11;;;;;;;7.45;3.15;;;;;;;15.40;97.70;101344.78;6277814;28;20339;-81
2023/04/21 09:54:16;;;;;;;8.73;3.08;;;;;;;15.57;96.24;101333.94;6278214;28;20341;-81
2023/04/21 09:57:23;;;;;;;5.78;2.85;;;;;;;15.79;95.56;101353.78;6269969;28;20041;-81
2023/04/21 10:00:27;;;;;;;3.63;2.90;;;;;;;15.94;92.93;101340.38;6277969;28;20389;-82
2023/04/21 10:03:30;;;;;;;5.72;2.50;;;;;;;15.82;93.24;101333.22;6277738;28;20052;-79
2023/04/21 10:06:32;;;;;;;4.25;2.22;;;;;;;16.05;90.89;101341.47;6277598;28;20043;-84
2023/04/21 10:09:40;;;;;;;8.85;2.60;;;;;;;16.00;91.52;101332.97;6278204;28;20053;-86
2023/04/21 10:12:41;;;;;;;9.75;2.40;;;;;;;16.16;89.83;101325.66;6277899;28;20361;-79
2023/04/21 10:15:44;;;;;;;5.97;2.55;;;;;;;16.27;86.15;101333.75;6277792;28;20318;-86
2023/04/21 10:18:46;;;;;;;4.38;2.35;;;;;;;16.39;81.84;101321.44;6276903;28;20044;-86
2023/04/21 10:21:49;;;;;;;3.67;2.00;;;;;;;16.32;86.66;101321.03;6277969;28;20041;-86
2023/04/21 10:24:55;;;;;;;7.75;2.70;;;;;;;16.37;86.36;101318.91;6277767;28;20041;-86
2023/04/21 10:27:56;;;;;;;4.38;2.08;;;;;;;16.74;77.28;101311.06;6277321;28;20464;-87
2023/04/21 10:31:17;;;;;;;8.88;2.30;;;;;;;16.92;72.74;101291.19;6277821;28;20048;-87
2023/04/21 10:34:29;;;;;;;5.57;2.20;;;;;;;16.91;76.80;101307.25;6261535;28;20049;-85
2023/04/21 10:37:31;;;;;;;13.38;2.20;;;;;;;17.02;73.47;101307.31;6277398;28;20076;-87
2023/04/21 10:40:35;;;;;;;4.55;2.10;;;;;;;17.17;66.55;101289.44;6277472;28;20045;-86
2023/04/21 10:43:44;;;;;;;8.10;2.42;;;;;;;17.31;65.75;101296.41;6277909;28;20048;-88
2023/04/21 10:46:48;;;;;;;5.93;2.30;;;;;;;17.20;68.11;101291.88;6277529;28;20072;-87
2023/04/21 10:49:49;;;;;;;11.57;2.90;;;;;;;17.33;65.76;101275.88;6277672;28;20053;-86
2023/04/21 10:52:57;;;;;;;3.95;1.73;;;;;;;17.29;71.31;101277.06;6276864;28;20506;-88
2023/04/21 10:55:58;;;;;;;4.75;2.03;;;;;;;17.38;67.70;101266.59;6276956;28;20138;-86
2023/04/21 10:59:00;;;;;;;5.47;2.67;;;;;;;17.77;65.27;101266.47;6276984;28;20053;-86
2023/04/21 11:02:04;;;;;;;5.60;2.45;;;;;;;17.79;61.27;101268.03;6277751;28;20049;-85
2023/04/21 11:05:08;;;;;;;4.57;2.28;;;;;;;18.05;57.29;101270.53;6277224;28;20056;-88
2023/04/21 11:08:13;;;;;;;5.28;2.13;;;;;;;18.11;57.05;101262.91;6276860;28;20049;-86
2023/04/21 11:11:21;;;;;;;5.03;2.50;;;;;;;18.13;56.66;101247.69;6277179;28;20455;-87
2023/04/21 11:14:31;;;;;;;4.45;2.28;;;;;;;18.19;56.51;101243.72;6322695;27;20378;-87
2023/04/21 11:17:32;;;;;;;4.85;2.10;;;;;;;18.20;56.13;101248.91;6322273;28;20348;-87
2023/04/21 11:20:34;;;;;;;5.25;2.50;;;;;;;18.42;54.27;101231.28;6322528;28;20052;-88
2023/04/21 11:23:40;;;;;;;8.30;2.90;;;;;;;18.53;54.89;101231.28;6322114;28;20419;-86
2023/04/21 11:26:42;;;;;;;4.97;2.47;;;;;;;18.66;54.00;101228.47;6322005;28;20055;-87
2023/04/21 11:29:46;;;;;;;4.78;2.45;;;;;;;18.86;51.28;101235.75;6322406;28;20048;-85
2023/04/21 11:32:53;;;;;;;6.50;1.98;;;;;;;18.95;51.76;101221.72;6321854;28;20044;-87
2023/04/21 11:35:57;;;;;;;5.22;2.00;;;;;;;19.01;50.58;101226.53;6322296;28;20052;-89
2023/04/21 11:38:59;;;;;;;3.97;2.33;;;;;;;19.10;50.06;101208.94;6320814;28;20051;-86
2023/04/21 11:42:01;;;;;;;5.57;1.98;;;;;;;19.17;53.01;101188.00;6322257;28;20456;-86
2023/04/21 11:45:04;;;;;;;4.43;2.05;;;;;;;19.57;49.63;101212.16;6321681;28;20055;-78
2023/04/21 11:48:15;;;;;;;4.50;1.98;;;;;;;19.55;47.21;101202.59;6320898;28;20048;-76
2023/04/21 11:51:17;;;;;;;7.25;2.97;;;;;;;19.66;48.00;101199.91;6320958;28;20109;-88
2023/04/21 11:54:20;;;;;;;5.15;2.35;;;;;;;19.94;45.61;101190.38;6312433;28;20044;-84
2023/04/21 11:57:22;;;;;;;3.50;2.45;;;;;;;20.11;44.70;101200.47;6320783;28;20044;-85
2023/04/21 12:00:29;;;;;;;5.70;2.60;;;;;;;20.24;43.95;101187.75;6312338;28;20053;-85
2023/04/21 12:03:32;;;;;;;3.13;2.33;;;;;;;20.37;45.03;101192.03;6298282;28;20130;-84
2023/04/21 12:06:37;;;;;;;7.68;2.40;;;;;;;20.50;45.03;101192.66;6320336;28;20051;-84
2023/04/21 12:09:39;;;;;;;4.75;2.42;;;;;;;20.60;45.38;101176.69;6301715;28;20044;-87
2023/04/21 12:12:41;;;;;;;3.25;2.17;;;;;;;20.85;44.52;101175.31;6295927;28;20049;-86
2023/04/21 12:15:45;;;;;;;4.50;2.13;;;;;;;20.79;43.60;101174.03;6315881;28;20055;-84
2023/04/21 12:18:48;;;;;;;5.75;2.67;;;;;;;20.83;44.12;101179.97;6316091;28;20136;-86
2023/04/21 12:21:53;;;;;;;5.20;2.88;;;;;;;20.90;42.83;101170.44;6316775;28;20051;-83
2023/04/21 12:24:54;;;;;;;6.32;2.05;;;;;;;21.12;44.04;101170.16;6308973;28;20048;-83
2023/04/21 12:27:58;;;;;;;6.78;3.30;;;;;;;21.11;39.68;101171.13;6303361;28;20060;-85
2023/04/21 12:31:01;;;;;;;4.85;2.45;;;;;;;21.19;39.23;101157.06;6303671;28;20056;-83
2023/04/21 12:34:02;;;;;;;5.53;3.33;;;;;;;21.27;39.02;101154.56;6301410;28;20322;-83
2023/04/21 12:37:04;;;;;;;6.22;2.13;;;;;;;21.40;40.99;101157.81;6284578;28;20467;-84
2023/04/21 12:40:07;;;;;;;4.65;2.40;;;;;;;21.57;39.75;101152.72;6303325;28;20461;-83
2023/04/21 12:43:09;;;;;;;6.93;2.53;;;;;;;21.49;36.56;101154.28;6279794;28;20088;-87
2023/04/21 12:46:11;;;;;;;6.55;3.00;;;;;;;21.47;34.93;101142.03;6286658;28;20115;-82
2023/04/21 12:49:14;;;;;;;9.68;2.35;;;;;;;21.42;35.77;101141.63;6294996;28;20049;-85
2023/04/21 12:52:15;;;;;;;11.05;2.63;;;;;;;21.58;36.61;101127.69;6278928;28;20049;-83
2023/04/21 12:55:17;;;;;;;3.97;2.30;;;;;;;21.84;34.38;101139.41;6303626;28;20048;-84
2023/04/21 12:58:18;;;;;;;5.00;2.25;;;;;;;22.02;35.76;101147.53;6295187;28;20119;-85
2023/04/21 13:01:24;;;;;;;3.47;2.20;;;;;;;22.16;35.42;101143.56;6303606;28;20057;-85
2023/04/21 13:04:25;;;;;;;5.00;2.97;;;;;;;22.21;34.80;101141.28;6293897;28;20140;-85
2023/04/21 13:07:30;;;;;;;3.80;2.15;;;;;;;22.22;34.26;101129.59;6279223;28;20049;-86
2023/04/21 13:10:31;;;;;;;4.78;2.67;;;;;;;22.19;32.63;101127.22;6292999;28;20183;-87
2023/04/21 13:13:33;;;;;;;4.55;2.25;;;;;;;22.21;33.69;101134.13;6296612;28;20119;-88
2023/04/21 13:16:35;;;;;;;4.03;2.00;;;;;;;22.16;32.77;101128.34;6302692;28;20049;-86
2023/04/21 13:19:37;;;;;;;3.95;2.63;;;;;;;22.13;31.95;101117.09;6294193;28;20045;-86
2023/04/21 13:22:38;;;;;;;4.53;2.53;;;;;;;22.20;32.00;101110.16;6302650;28;20037;-86
2023/04/21 13:25:40;;;;;;;3.83;2.40;;;;;;;22.17;32.00;101099.75;6294179;28;20041;-87
2023/04/21 13:28:41;;;;;;;4.20;2.75;;;;;;;22.22;33.66;101100.16;6302589;28;20048;-87
2023/04/21 13:31:44;;;;;;;4.22;2.30;;;;;;;22.35;32.52;101108.69;6302256;28;20341;-87
2023/04/21 13:34:46;;;;;;;4.22;2.10;;;;;;;22.25;32.47;101092.63;6300013;28;20052;-84
2023/04/21 13:37:48;;;;;;;4.82;2.55;;;;;;;22.23;33.90;101094.63;6300987;28;20143;-86
2023/04/21 13:40:50;;;;;;;4.20;2.22;;;;;;;22.33;32.91;101091.91;6302250;28;20060;-86
2023/04/21 13:43:51;;;;;;;4.43;2.58;;;;;;;22.35;31.73;101092.63;6302324;28;20079;-84
2023/04/21 13:46:56;;;;;;;6.70;2.53;;;;;;;22.28;33.69;101080.81;6296651;28;20335;-86
2023/04/21 13:49:57;;;;;;;5.22;2.72;;;;;;;22.12;34.77;101075.25;6299108;28;20106;-85
2023/04/21 13:52:58;;;;;;;4.53;2.78;;;;;;;22.16;33.14;101085.50;6301824;28;20048;-87
2023/04/21 13:56:00;;;;;;;4.18;2.78;;;;;;;22.19;34.14;101068.31;6279384;28;20060;-86
2023/04/21 13:59:01;;;;;;;4.30;2.47;;;;;;;22.41;35.20;101065.22;6276946;28;20045;-87
2023/04/21 14:02:04;;;;;;;3.67;2.53;;;;;;;22.49;35.13;101065.31;6291698;28;20051;-85
2023/04/21 14:05:06;;;;;;;8.70;2.83;;;;;;;22.60;33.59;101058.88;6300681;28;20059;-86